This is the latest recevied weather packets stored in our database for station/object NY5V. If no packets are shown the sender has not sent any weather packets the latest 10 day(s).
| Time | Temp. | Humidity | Pressure | Rain* | Wind** | Luminosity | Snow |
|---|---|---|---|---|---|---|---|
| 1777320234 | 30° C | 74% | 1009.9 hPa | 0 mm | - | 157 W/m² | - |
| 1777319634 | 30° C | 73% | 1009.8 hPa | 0 mm | - | 144 W/m² | - |
| 1777319034 | 30° C | 74% | 1009.8 hPa | 0 mm | - | 122 W/m² | - |
| 1777318431 | 30° C | 74% | 1010 hPa | 0 mm | - | 181 W/m² | - |
| 1777317831 | 29.44° C | 74% | 1009.8 hPa | 0 mm | - | 218 W/m² | - |
| 1777317231 | 30° C | 73% | 1009.9 hPa | 0 mm | - | 187 W/m² | - |
| 1777316629 | 28.89° C | 75% | 1009.6 hPa | 0 mm | - | 291 W/m² | - |
| 1777316029 | 30° C | 74% | 1009.7 hPa | 0 mm | - | 194 W/m² | - |
| 1777315425 | 30.56° C | 73% | 1009.6 hPa | 0 mm | - | 213 W/m² | - |
| 1777314824 | 30° C | 74% | 1009.5 hPa | 0 mm | - | 644 W/m² | - |
| 1777314223 | 29.44° C | 74% | 1009.6 hPa | 0 mm | - | 300 W/m² | - |
| 1777313619 | 29.44° C | 73% | 1009.9 hPa | 0 mm | - | 241 W/m² | - |
| 1777313019 | 29.44° C | 75% | 1009.9 hPa | 0 mm | - | 678 W/m² | - |
| 1777312418 | 28.89° C | 77% | 1010 hPa | 0 mm | - | 183 W/m² | - |
| 1777311812 | 28.89° C | 76% | 1010.1 hPa | 0 mm | - | 257 W/m² | - |
| 1777311213 | 28.33° C | 77% | 1010.4 hPa | 0 mm | - | 236 W/m² | - |
| 1777310608 | 28.89° C | 76% | 1010.1 hPa | 0 mm | - | 722 W/m² | - |
| 1777310008 | 28.33° C | 78% | 1010.2 hPa | 0 mm | - | 202 W/m² | - |
| 1777309403 | 28.33° C | 77% | 1010.2 hPa | 0 mm | - | 241 W/m² | - |
| 1777308798 | 28.33° C | 76% | 1010.2 hPa | 0 mm | - | 171 W/m² | - |
| 1777308194 | 28.89° C | 76% | 1010 hPa | 0 mm | - | 478 W/m² | - |
| 1777307589 | 27.78° C | 79% | 1010.2 hPa | 0 mm | - | 419 W/m² | - |
| 1777306989 | 27.78° C | 80% | 1010.1 hPa | 0 mm | - | 174 W/m² | - |
| 1777306389 | 28.33° C | 78% | 1010.3 hPa | 0 mm | - | 205 W/m² | - |
| 1777305785 | 27.22° C | 83% | 1010.3 hPa | 0 mm | - | 629 W/m² | - |
* Rain latest hour (hover to see other rain measurements)
** Current wind speed in m/s (hover to see current wind gust speed)